createdAt,value
2023-05-11T00:02:02.233Z,71.80
2023-05-11T00:04:29.271Z,71.59
2023-05-11T00:06:56.904Z,71.29
2023-05-11T00:09:23.907Z,71.25
2023-05-11T00:11:52.967Z,70.57
2023-05-11T00:14:20.332Z,70.47
2023-05-11T00:16:47.216Z,71.10
2023-05-11T00:19:14.466Z,70.44
2023-05-11T00:21:41.496Z,71.56
2023-05-11T00:24:09.063Z,71.67
2023-05-11T00:26:36.129Z,72.01
2023-05-11T00:29:03.192Z,72.62
2023-05-11T00:31:30.650Z,72.63
2023-05-11T00:33:57.752Z,73.15
2023-05-11T00:36:24.789Z,73.92
2023-05-11T00:38:53.005Z,73.47
2023-05-11T00:41:20.047Z,73.86
2023-05-11T00:43:47.152Z,73.87
2023-05-11T00:46:14.188Z,73.19
2023-05-11T00:48:41.252Z,72.59
2023-05-11T00:51:08.324Z,71.98
2023-05-11T00:53:35.424Z,71.62
2023-05-11T00:56:03.859Z,72.70
2023-05-11T00:58:31.683Z,74.48
2023-05-11T01:00:58.776Z,74.68
2023-05-11T01:03:26.714Z,74.09
2023-05-11T01:06:22.077Z,74.81
2023-05-11T01:08:57.055Z,73.72
2023-05-11T01:11:31.381Z,73.76
2023-05-11T01:14:11.824Z,73.71
2023-05-11T01:16:42.315Z,73.13
2023-05-11T01:19:41.644Z,73.89
2023-05-11T01:22:34.164Z,74.04
2023-05-11T01:25:12.726Z,74.59
2023-05-11T01:27:56.095Z,74.91
2023-05-11T01:30:26.455Z,74.25
2023-05-11T01:32:59.226Z,73.44
2023-05-11T01:35:29.711Z,73.76
2023-05-11T01:38:00.165Z,73.56
2023-05-11T01:40:32.350Z,72.73
2023-05-11T01:43:05.344Z,73.07
2023-05-11T01:45:36.558Z,73.15
2023-05-11T01:48:09.975Z,73.41
2023-05-11T01:50:39.089Z,73.68
2023-05-11T01:53:07.842Z,73.74
2023-05-11T01:55:38.449Z,72.98
2023-05-11T01:58:09.035Z,74.48
2023-05-11T02:00:36.698Z,74.83
2023-05-11T02:03:07.261Z,73.59
2023-05-11T02:05:35.237Z,71.59
2023-05-11T02:08:06.130Z,70.39
2023-05-11T02:10:34.492Z,70.18
2023-05-11T02:13:05.471Z,71.13
2023-05-11T02:15:36.078Z,71.28
2023-05-11T02:18:05.356Z,71.27
2023-05-11T02:20:35.036Z,71.50
2023-05-11T02:23:03.616Z,71.70
2023-05-11T02:25:32.059Z,71.83
2023-05-11T02:27:59.057Z,71.65
2023-05-11T02:30:28.926Z,71.85
2023-05-11T02:32:58.781Z,71.89
2023-05-11T02:35:30.580Z,72.63
2023-05-11T02:38:01.809Z,73.07
2023-05-11T02:40:34.654Z,73.65
2023-05-11T02:43:09.619Z,73.92
2023-05-11T02:45:41.432Z,74.08
2023-05-11T02:48:15.260Z,73.66
2023-05-11T02:50:43.748Z,73.87
2023-05-11T02:53:15.900Z,73.87
2023-05-11T02:55:44.273Z,74.35
2023-05-11T02:58:11.766Z,75.03
2023-05-11T03:00:42.529Z,75.12
2023-05-11T03:03:09.782Z,74.84
2023-05-11T03:05:36.891Z,75.23
2023-05-11T03:08:04.223Z,74.80
2023-05-11T03:10:31.795Z,74.46
2023-05-11T03:12:59.362Z,75.55
2023-05-11T03:15:28.114Z,77.34
2023-05-11T03:17:56.819Z,77.40
2023-05-11T03:20:24.212Z,76.23
2023-05-11T03:22:52.809Z,75.24
2023-05-11T03:25:21.089Z,75.85
2023-05-11T03:27:50.879Z,75.29
2023-05-11T03:30:20.378Z,75.54
2023-05-11T03:32:50.739Z,77.95
2023-05-11T03:35:18.011Z,78.61
2023-05-11T03:37:45.962Z,78.40
2023-05-11T03:40:15.840Z,79.34
2023-05-11T03:42:54.748Z,78.52
2023-05-11T03:45:23.819Z,77.01
2023-05-11T03:47:52.499Z,76.84
2023-05-11T03:50:20.878Z,76.84
2023-05-11T03:52:49.332Z,75.65
2023-05-11T03:55:16.649Z,76.86
2023-05-11T03:57:43.673Z,75.25
2023-05-11T04:00:11.920Z,75.16
2023-05-11T04:02:45.986Z,76.72
2023-05-11T04:05:13.691Z,77.01
2023-05-11T04:07:42.991Z,75.84
2023-05-11T04:10:10.143Z,74.85
2023-05-11T04:12:37.031Z,74.52
2023-05-11T04:15:04.759Z,74.99
2023-05-11T04:17:31.741Z,74.64
2023-05-11T04:19:58.869Z,75.00
2023-05-11T04:22:25.834Z,73.60
2023-05-11T04:24:52.863Z,73.71
2023-05-11T04:27:19.832Z,74.17
2023-05-11T04:29:46.817Z,74.25
2023-05-11T04:32:13.836Z,72.55
2023-05-11T04:34:41.300Z,72.36
2023-05-11T04:37:09.611Z,72.44
2023-05-11T04:39:39.138Z,72.57
2023-05-11T04:42:06.280Z,73.21
2023-05-11T04:44:33.706Z,72.95
2023-05-11T04:47:00.867Z,72.39
2023-05-11T04:49:27.960Z,72.21
2023-05-11T04:51:55.889Z,72.00
2023-05-11T04:54:23.148Z,71.76
2023-05-11T04:56:50.183Z,73.14
2023-05-11T04:59:17.257Z,73.08
2023-05-11T05:01:44.599Z,71.57
2023-05-11T05:04:11.608Z,71.98
2023-05-11T05:06:38.782Z,71.66
2023-05-11T05:09:05.807Z,71.92
2023-05-11T05:11:32.860Z,73.08
2023-05-11T05:13:59.908Z,73.02
2023-05-11T05:16:27.072Z,73.19
2023-05-11T05:18:54.320Z,73.76
2023-05-11T05:21:21.551Z,74.12
2023-05-11T05:23:49.083Z,77.65
2023-05-11T05:26:16.331Z,76.57
2023-05-11T05:28:44.682Z,75.46
2023-05-11T05:31:11.706Z,73.83
2023-05-11T05:33:38.969Z,71.23
2023-05-11T05:36:06.348Z,71.87
2023-05-11T05:38:33.426Z,74.58
2023-05-11T05:41:02.509Z,75.48
2023-05-11T05:43:32.568Z,66.59
2023-05-11T05:46:00.578Z,68.68
2023-05-11T05:48:29.612Z,65.79
2023-05-11T05:50:56.697Z,65.53
2023-05-11T05:53:23.806Z,66.45
2023-05-11T05:55:50.835Z,65.20
2023-05-11T05:58:18.186Z,64.78
2023-05-11T06:00:45.589Z,63.88
2023-05-11T06:03:13.350Z,63.46
2023-05-11T06:05:41.320Z,64.66
2023-05-11T06:08:10.935Z,66.32
2023-05-11T06:10:39.587Z,67.43
2023-05-11T06:13:09.557Z,66.11
2023-05-11T06:15:38.899Z,68.90
2023-05-11T06:18:15.970Z,70.02
2023-05-11T06:20:44.409Z,68.18
2023-05-11T06:23:12.636Z,66.54
2023-05-11T06:25:42.557Z,66.16
2023-05-11T06:28:10.058Z,66.97
2023-05-11T06:30:37.896Z,66.59
2023-05-11T06:33:07.392Z,65.13
2023-05-11T06:35:37.714Z,67.75
2023-05-11T06:38:07.334Z,61.21
2023-05-11T06:40:36.106Z,61.70
2023-05-11T06:43:03.253Z,60.66
2023-05-11T06:45:45.548Z,63.09
2023-05-11T06:48:13.011Z,71.31
2023-05-11T06:50:40.696Z,66.58
2023-05-11T06:53:08.312Z,67.32
2023-05-11T06:55:35.558Z,64.18
2023-05-11T06:58:02.557Z,65.79
2023-05-11T07:00:29.644Z,67.50
2023-05-11T07:02:56.661Z,64.38
2023-05-11T07:05:24.023Z,69.98
2023-05-11T07:07:51.455Z,68.12
2023-05-11T07:10:18.803Z,71.12
2023-05-11T07:12:45.988Z,72.74
2023-05-11T07:15:13.088Z,70.27
2023-05-11T07:17:40.216Z,62.34
2023-05-11T07:20:08.102Z,65.22
2023-05-11T07:22:35.066Z,65.34
2023-05-11T07:25:02.016Z,69.31
2023-05-11T07:27:29.121Z,64.12
2023-05-11T07:29:56.299Z,60.11
2023-05-11T07:32:23.444Z,65.10
2023-05-11T07:34:50.507Z,68.10
2023-05-11T07:37:17.567Z,60.58
2023-05-11T07:39:44.634Z,61.26
2023-05-11T07:42:11.738Z,60.68
2023-05-11T07:44:40.996Z,63.25
2023-05-11T07:47:08.080Z,63.85
2023-05-11T07:49:43.081Z,61.59
2023-05-11T07:52:11.875Z,57.17
2023-05-11T07:54:41.345Z,61.41
2023-05-11T07:57:08.616Z,64.61
2023-05-11T07:59:36.208Z,63.10
2023-05-11T08:02:04.860Z,63.79
2023-05-11T08:04:31.956Z,62.25
2023-05-11T08:06:59.049Z,57.58
2023-05-11T08:09:26.031Z,62.27
2023-05-11T08:11:54.228Z,60.57
2023-05-11T08:14:21.427Z,54.04
2023-05-11T08:16:49.895Z,54.15
2023-05-11T08:19:16.928Z,55.72
2023-05-11T08:21:45.090Z,59.03
2023-05-11T08:24:12.450Z,52.92
2023-05-11T08:26:39.494Z,59.27
2023-05-11T08:29:06.453Z,61.12
2023-05-11T08:31:33.563Z,51.12
2023-05-11T08:34:00.778Z,57.87
2023-05-11T08:36:27.984Z,52.49
2023-05-11T08:38:59.062Z,53.67
2023-05-11T08:41:26.325Z,55.66
2023-05-11T08:43:55.469Z,57.23
2023-05-11T08:46:24.593Z,57.64
2023-05-11T08:48:51.913Z,57.68
2023-05-11T08:51:19.129Z,55.19
2023-05-11T08:53:46.087Z,58.48
2023-05-11T08:56:13.821Z,57.64
2023-05-11T08:58:41.847Z,51.25
2023-05-11T09:01:10.862Z,53.28
2023-05-11T09:03:40.340Z,51.27
2023-05-11T09:06:08.184Z,54.79
2023-05-11T09:08:36.680Z,57.55
2023-05-11T09:11:04.263Z,52.12
2023-05-11T09:13:32.127Z,52.34
2023-05-11T09:15:59.498Z,54.98
2023-05-11T09:18:27.189Z,56.96
2023-05-11T09:20:54.245Z,53.76
2023-05-11T09:23:28.167Z,52.20
2023-05-11T09:25:55.245Z,47.24
2023-05-11T09:28:25.748Z,47.52
2023-05-11T09:30:54.000Z,47.81
2023-05-11T09:33:25.960Z,49.69
2023-05-11T09:35:53.336Z,50.50
2023-05-11T09:38:20.907Z,54.26
2023-05-11T09:40:52.871Z,47.82
2023-05-11T09:43:29.229Z,50.81
2023-05-11T09:45:58.199Z,54.68
2023-05-11T09:48:28.262Z,56.91
2023-05-11T09:51:08.489Z,58.00
2023-05-11T09:53:44.132Z,53.83
2023-05-11T09:56:12.709Z,52.46
2023-05-11T09:58:57.559Z,49.69
2023-05-11T10:01:32.957Z,53.57
2023-05-11T10:04:17.804Z,54.67
2023-05-11T10:06:53.705Z,54.80
2023-05-11T10:09:25.732Z,50.62
2023-05-11T10:11:53.846Z,49.10
2023-05-11T10:14:22.413Z,51.89
2023-05-11T10:16:50.193Z,52.19
2023-05-11T10:19:18.782Z,50.19
2023-05-11T10:21:46.489Z,50.34
2023-05-11T10:24:14.616Z,52.94
2023-05-11T10:26:42.773Z,53.45
2023-05-11T10:29:10.438Z,50.65
2023-05-11T10:31:37.917Z,54.50
2023-05-11T10:34:05.982Z,52.24
2023-05-11T10:36:34.052Z,52.66
2023-05-11T10:39:01.229Z,53.97
2023-05-11T10:42:11.989Z,54.46
2023-05-11T10:44:57.765Z,52.05
2023-05-11T10:47:31.452Z,51.34
2023-05-11T10:50:34.410Z,53.63
2023-05-11T10:53:26.235Z,54.33
2023-05-11T10:56:30.393Z,50.31
2023-05-11T10:58:57.445Z,50.89
2023-05-11T11:01:46.606Z,52.23
2023-05-11T11:04:14.417Z,54.15
2023-05-11T11:06:44.018Z,52.85
2023-05-11T11:09:15.913Z,54.93
2023-05-11T11:11:50.821Z,53.93
2023-05-11T11:14:19.392Z,49.91
2023-05-11T11:17:17.400Z,53.39
2023-05-11T11:19:44.513Z,54.82
2023-05-11T11:22:41.328Z,55.06
2023-05-11T11:25:10.056Z,54.75
2023-05-11T11:27:46.231Z,54.53
2023-05-11T11:30:19.280Z,54.61
2023-05-11T11:32:52.284Z,54.71
2023-05-11T11:35:41.749Z,56.47
2023-05-11T11:38:09.022Z,56.24
2023-05-11T11:40:50.747Z,53.47
2023-05-11T11:43:24.770Z,54.87
2023-05-11T11:45:54.738Z,54.88
2023-05-11T11:48:31.591Z,56.25
2023-05-11T11:51:03.464Z,56.76
2023-05-11T11:53:36.557Z,56.94
2023-05-11T11:56:15.543Z,56.69
2023-05-11T11:58:45.240Z,56.11
2023-05-11T12:01:14.060Z,56.75
2023-05-11T12:03:43.625Z,56.94
2023-05-11T12:06:12.369Z,56.25
2023-05-11T12:08:41.167Z,55.64
2023-05-11T12:11:08.648Z,55.05
2023-05-11T12:13:36.158Z,55.68
2023-05-11T12:16:13.398Z,56.47
2023-05-11T12:18:41.966Z,56.53
2023-05-11T12:21:22.508Z,55.51
2023-05-11T12:23:57.185Z,53.62
2023-05-11T12:26:27.619Z,54.30
2023-05-11T12:29:18.783Z,52.34
2023-05-11T12:31:46.996Z,53.25
2023-05-11T12:34:19.086Z,51.58
2023-05-11T12:36:47.718Z,55.70
2023-05-11T12:39:28.425Z,55.26
2023-05-11T12:41:56.780Z,55.23
2023-05-11T12:44:26.761Z,56.41
2023-05-11T12:46:54.579Z,56.57
2023-05-11T12:49:26.689Z,55.81
2023-05-11T12:52:01.175Z,54.13
2023-05-11T12:54:47.333Z,54.24
2023-05-11T12:57:34.045Z,55.20
2023-05-11T13:00:15.746Z,55.06
2023-05-11T13:02:50.042Z,54.49
2023-05-11T13:05:19.442Z,55.13
2023-05-11T13:07:47.525Z,55.76
2023-05-11T13:10:14.536Z,56.26
2023-05-11T13:12:51.993Z,56.87
2023-05-11T13:15:20.993Z,54.51
2023-05-11T13:17:55.376Z,56.72
2023-05-11T13:20:27.907Z,55.76
2023-05-11T13:23:08.083Z,57.69
2023-05-11T13:25:50.921Z,58.77
2023-05-11T13:28:22.173Z,58.90
2023-05-11T13:30:51.347Z,58.57
2023-05-11T13:33:18.928Z,59.46
2023-05-11T13:35:46.422Z,59.07
2023-05-11T13:38:13.472Z,59.56
2023-05-11T13:40:40.698Z,58.76
2023-05-11T13:43:07.814Z,58.46
2023-05-11T13:45:36.581Z,59.87
2023-05-11T13:48:03.887Z,60.38
2023-05-11T13:50:32.396Z,60.46
2023-05-11T13:52:59.605Z,60.00
2023-05-11T13:55:26.937Z,59.34
2023-05-11T13:57:53.911Z,60.18
2023-05-11T14:00:21.428Z,60.79
2023-05-11T14:02:50.741Z,60.65
2023-05-11T14:05:18.443Z,59.58
2023-05-11T14:07:48.248Z,61.83
2023-05-11T14:10:17.348Z,59.84
2023-05-11T14:12:44.967Z,60.78
2023-05-11T14:15:12.212Z,59.79
2023-05-11T14:17:39.462Z,60.89
2023-05-11T14:20:07.411Z,60.91
2023-05-11T14:22:34.391Z,59.71
2023-05-11T14:25:02.167Z,60.04
2023-05-11T14:27:29.333Z,59.09
2023-05-11T14:29:56.200Z,60.24
2023-05-11T14:32:23.331Z,60.44
2023-05-11T14:34:50.284Z,61.32
2023-05-11T14:37:17.282Z,61.09
2023-05-11T14:39:44.439Z,59.40
2023-05-11T14:42:11.500Z,61.17
2023-05-11T14:44:38.490Z,60.33
2023-05-11T14:47:07.728Z,60.56
2023-05-11T14:49:34.806Z,62.04
2023-05-11T14:52:02.153Z,61.89
2023-05-11T14:54:29.086Z,61.42
2023-05-11T14:56:58.240Z,61.96
2023-05-11T14:59:26.499Z,61.18
2023-05-11T15:01:53.557Z,61.58
2023-05-11T15:04:20.791Z,62.13
2023-05-11T15:06:48.589Z,61.56
2023-05-11T15:09:15.652Z,61.42
2023-05-11T15:11:42.645Z,60.31
2023-05-11T15:14:09.975Z,60.51
2023-05-11T15:16:38.101Z,61.67
2023-05-11T15:19:06.167Z,62.45
2023-05-11T15:21:33.811Z,62.51
2023-05-11T15:24:01.027Z,61.09
2023-05-11T15:26:28.264Z,61.04
2023-05-11T15:28:55.401Z,61.14
2023-05-11T15:31:22.654Z,61.84
2023-05-11T15:33:49.943Z,61.91
2023-05-11T15:36:17.153Z,61.38
2023-05-11T15:38:44.140Z,62.29
2023-05-11T15:41:11.136Z,62.69
2023-05-11T15:43:38.049Z,62.92
2023-05-11T15:46:05.878Z,63.00
2023-05-11T15:48:33.348Z,62.87
2023-05-11T15:51:01.278Z,62.83
2023-05-11T15:53:28.900Z,63.19
2023-05-11T15:55:57.172Z,63.95
2023-05-11T15:58:24.361Z,64.14
2023-05-11T16:00:51.542Z,64.68
2023-05-11T16:03:20.127Z,64.90
2023-05-11T16:05:47.457Z,63.76
2023-05-11T16:08:14.782Z,64.08
2023-05-11T16:10:41.820Z,64.64
2023-05-11T16:13:09.691Z,64.04
2023-05-11T16:15:37.051Z,64.14
2023-05-11T16:18:11.978Z,64.56
2023-05-11T16:20:39.136Z,64.24
2023-05-11T16:23:06.193Z,64.10
2023-05-11T16:25:33.211Z,64.50
2023-05-11T16:28:00.183Z,64.84
2023-05-11T16:30:27.429Z,64.70
2023-05-11T16:32:54.893Z,64.22
2023-05-11T16:35:22.057Z,64.07
2023-05-11T16:37:49.160Z,64.49
2023-05-11T16:40:21.416Z,64.24
2023-05-11T16:42:49.185Z,65.22
2023-05-11T16:45:16.762Z,65.23
2023-05-11T16:47:46.970Z,65.22
2023-05-11T16:50:16.239Z,64.99
2023-05-11T16:52:43.767Z,65.16
2023-05-11T16:55:11.228Z,64.51
2023-05-11T16:57:38.353Z,64.68
2023-05-11T17:00:06.569Z,65.16
2023-05-11T17:02:33.980Z,65.18
2023-05-11T17:05:01.155Z,64.91
2023-05-11T17:07:28.276Z,64.39
2023-05-11T17:09:59.034Z,63.43
2023-05-11T17:12:26.168Z,63.43
2023-05-11T17:14:53.228Z,64.26
2023-05-11T17:17:20.271Z,65.23
2023-05-11T17:19:47.332Z,65.42
2023-05-11T17:22:14.546Z,65.34
2023-05-11T17:24:41.679Z,63.78
2023-05-11T17:27:08.718Z,63.78
2023-05-11T17:29:35.823Z,63.58
2023-05-11T17:32:03.548Z,64.67
2023-05-11T17:34:31.288Z,65.25
2023-05-11T17:36:58.704Z,65.71
2023-05-11T17:39:25.799Z,65.95
2023-05-11T17:41:52.790Z,66.08
2023-05-11T17:44:19.710Z,66.21
2023-05-11T17:46:46.849Z,66.43
2023-05-11T17:49:13.939Z,66.92
2023-05-11T17:51:40.917Z,66.72
2023-05-11T17:54:07.884Z,65.82
2023-05-11T17:56:34.878Z,66.26
2023-05-11T17:59:01.929Z,66.56
2023-05-11T18:01:28.999Z,66.12
2023-05-11T18:03:59.108Z,65.73
2023-05-11T18:06:36.046Z,65.94
2023-05-11T18:09:05.128Z,66.47
2023-05-11T18:11:32.613Z,66.66
2023-05-11T18:13:59.602Z,66.70
2023-05-11T18:16:26.950Z,66.53
2023-05-11T18:18:54.126Z,66.72
2023-05-11T18:21:21.166Z,66.12
2023-05-11T18:23:48.226Z,66.11
2023-05-11T18:26:16.377Z,65.79
2023-05-11T18:28:43.436Z,66.39
2023-05-11T18:31:10.550Z,66.11
2023-05-11T18:33:45.052Z,66.22
2023-05-11T18:36:12.271Z,66.26
2023-05-11T18:38:39.305Z,66.53
2023-05-11T18:41:08.118Z,66.19
2023-05-11T18:43:35.133Z,65.54
2023-05-11T18:46:07.135Z,65.21
2023-05-11T18:48:34.195Z,65.92
2023-05-11T18:51:01.260Z,65.98
2023-05-11T18:53:28.270Z,65.21
2023-05-11T18:55:56.308Z,65.17
2023-05-11T18:58:23.806Z,65.00
2023-05-11T19:00:51.654Z,65.85
2023-05-11T19:03:20.823Z,65.12
2023-05-11T19:05:48.955Z,66.72
2023-05-11T19:08:16.625Z,66.43
2023-05-11T19:10:45.572Z,66.12
2023-05-11T19:13:15.819Z,66.14
2023-05-11T19:15:42.963Z,66.55
2023-05-11T19:18:10.051Z,67.37
2023-05-11T19:20:39.212Z,66.77
2023-05-11T19:23:06.470Z,66.84
2023-05-11T19:25:33.642Z,66.18
2023-05-11T19:28:00.670Z,66.91
2023-05-11T19:30:27.656Z,66.20
2023-05-11T19:32:54.732Z,66.88
2023-05-11T19:35:21.845Z,66.89
2023-05-11T19:37:48.991Z,67.35
2023-05-11T19:40:44.513Z,67.21
2023-05-11T19:43:08.225Z,68.12
2023-05-11T19:45:37.419Z,68.77
2023-05-11T19:48:04.504Z,69.01
2023-05-11T19:50:31.580Z,68.37
2023-05-11T19:52:58.578Z,68.56
2023-05-11T19:55:25.629Z,67.99
2023-05-11T19:57:52.764Z,68.75
2023-05-11T20:00:23.018Z,69.02
2023-05-11T20:02:50.013Z,68.98
2023-05-11T20:05:17.537Z,69.36
2023-05-11T20:07:44.985Z,68.50
2023-05-11T20:10:12.680Z,67.57
2023-05-11T20:12:40.235Z,67.51
2023-05-11T20:15:08.900Z,68.39
2023-05-11T20:17:37.624Z,68.97
2023-05-11T20:20:05.087Z,68.97
2023-05-11T20:22:32.441Z,68.31
2023-05-11T20:24:59.478Z,67.23
2023-05-11T20:27:30.737Z,69.09
2023-05-11T20:29:57.990Z,70.12
2023-05-11T20:32:25.276Z,71.16
2023-05-11T20:34:52.448Z,70.64
2023-05-11T20:37:19.599Z,69.30
2023-05-11T20:39:47.018Z,69.65
2023-05-11T20:42:14.146Z,69.44
2023-05-11T20:44:41.161Z,70.57
2023-05-11T20:47:09.092Z,70.98
2023-05-11T20:49:39.355Z,71.21
2023-05-11T20:52:08.022Z,71.15
2023-05-11T20:54:36.004Z,70.71
2023-05-11T20:57:04.418Z,70.14
2023-05-11T21:02:02.377Z,69.71
2023-05-11T21:04:31.265Z,69.33
2023-05-11T21:06:58.628Z,69.31
2023-05-11T21:09:25.753Z,69.33
2023-05-11T21:11:53.024Z,70.41
2023-05-11T21:14:20.492Z,70.37
2023-05-11T21:16:48.150Z,70.05
2023-05-11T21:19:18.718Z,69.50
2023-05-11T21:21:47.165Z,69.23
2023-05-11T21:24:14.205Z,69.54
2023-05-11T21:26:41.552Z,70.08
2023-05-11T21:29:08.746Z,70.42
2023-05-11T21:31:35.753Z,70.53
2023-05-11T21:34:02.781Z,70.01
2023-05-11T21:36:29.777Z,69.92
2023-05-11T21:38:56.867Z,68.79
2023-05-11T21:41:23.878Z,68.23
2023-05-11T21:43:50.960Z,68.48
2023-05-11T21:46:17.937Z,69.57
2023-05-11T21:48:44.968Z,69.91
2023-05-11T21:51:13.329Z,70.56
2023-05-11T21:53:40.681Z,70.23
2023-05-11T21:56:10.029Z,71.06
2023-05-11T21:58:37.487Z,70.93
2023-05-11T22:01:04.808Z,71.65
2023-05-11T22:03:32.508Z,72.04
2023-05-11T22:05:59.582Z,71.44
2023-05-11T22:08:26.651Z,70.58
2023-05-11T22:10:53.730Z,68.88
2023-05-11T22:13:20.811Z,70.12
2023-05-11T22:15:47.753Z,70.44
2023-05-11T22:18:14.816Z,70.43
2023-05-11T22:20:41.776Z,70.91
2023-05-11T22:23:08.782Z,71.69
2023-05-11T22:25:35.962Z,71.52
2023-05-11T22:28:02.997Z,71.47
2023-05-11T22:30:30.123Z,71.60
2023-05-11T22:32:57.218Z,70.77
2023-05-11T22:35:24.367Z,71.96
2023-05-11T22:37:51.502Z,71.96
2023-05-11T22:40:19.041Z,70.70
2023-05-11T22:42:46.154Z,70.02
2023-05-11T22:45:13.237Z,70.35
2023-05-11T22:47:40.233Z,70.22
2023-05-11T22:50:11.736Z,70.05
2023-05-11T22:52:39.268Z,69.77
2023-05-11T22:55:07.064Z,69.90
2023-05-11T22:57:34.418Z,70.70
2023-05-11T23:00:01.366Z,70.76
2023-05-11T23:02:30.216Z,70.34
2023-05-11T23:04:57.788Z,69.90
2023-05-11T23:07:24.841Z,71.24
2023-05-11T23:09:53.009Z,72.25
2023-05-11T23:12:20.124Z,72.16
2023-05-11T23:14:47.317Z,71.88
2023-05-11T23:17:14.478Z,71.93
2023-05-11T23:19:42.004Z,72.55
2023-05-11T23:22:08.999Z,73.29
2023-05-11T23:24:36.294Z,73.29
2023-05-11T23:27:03.671Z,72.84
2023-05-11T23:29:30.865Z,72.86
2023-05-11T23:31:57.988Z,73.01
2023-05-11T23:34:25.139Z,72.69
2023-05-11T23:36:52.211Z,72.33
2023-05-11T23:39:19.390Z,72.45
2023-05-11T23:41:46.416Z,73.07
2023-05-11T23:44:13.400Z,72.50
2023-05-11T23:46:40.451Z,73.46
2023-05-11T23:49:07.886Z,74.12
2023-05-11T23:51:37.346Z,74.19
2023-05-11T23:54:04.458Z,74.01
2023-05-11T23:56:31.408Z,73.67
2023-05-11T23:58:58.350Z,74.38
